sensor_id;sensor_type;location;lat;lon;timestamp;P1;durP1;ratioP1;P2;durP2;ratioP2
15402;SDS011;7799;53.478;10.170;2022-10-04T00:00:56;0.40;;;0.40;;
15402;SDS011;7799;53.478;10.170;2022-10-04T00:03:25;0.60;;;0.50;;
15402;SDS011;7799;53.478;10.170;2022-10-04T00:05:54;0.50;;;0.50;;
15402;SDS011;7799;53.478;10.170;2022-10-04T00:08:25;0.47;;;0.47;;
15402;SDS011;7799;53.478;10.170;2022-10-04T00:11:02;0.40;;;0.40;;
15402;SDS011;7799;53.478;10.170;2022-10-04T00:13:30;0.40;;;0.40;;
15402;SDS011;7799;53.478;10.170;2022-10-04T00:15:57;0.40;;;0.40;;
15402;SDS011;7799;53.478;10.170;2022-10-04T00:18:26;0.40;;;0.40;;
15402;SDS011;7799;53.478;10.170;2022-10-04T00:20:57;0.50;;;0.50;;
15402;SDS011;7799;53.478;10.170;2022-10-04T00:23:39;0.43;;;0.43;;
15402;SDS011;7799;53.478;10.170;2022-10-04T00:26:10;0.30;;;0.30;;
15402;SDS011;7799;53.478;10.170;2022-10-04T00:28:42;0.50;;;0.50;;
15402;SDS011;7799;53.478;10.170;2022-10-04T00:31:11;0.40;;;0.40;;
15402;SDS011;7799;53.478;10.170;2022-10-04T00:33:43;0.73;;;0.50;;
15402;SDS011;7799;53.478;10.170;2022-10-04T00:36:29;0.30;;;0.30;;
15402;SDS011;7799;53.478;10.170;2022-10-04T00:39:14;0.40;;;0.40;;
15402;SDS011;7799;53.478;10.170;2022-10-04T00:41:47;0.40;;;0.40;;
15402;SDS011;7799;53.478;10.170;2022-10-04T00:44:22;0.37;;;0.37;;
15402;SDS011;7799;53.478;10.170;2022-10-04T00:46:53;0.50;;;0.50;;
15402;SDS011;7799;53.478;10.170;2022-10-04T00:49:24;0.40;;;0.40;;
15402;SDS011;7799;53.478;10.170;2022-10-04T00:51:56;0.40;;;0.40;;
15402;SDS011;7799;53.478;10.170;2022-10-04T00:54:28;0.50;;;0.50;;
15402;SDS011;7799;53.478;10.170;2022-10-04T00:56:58;0.50;;;0.50;;
15402;SDS011;7799;53.478;10.170;2022-10-04T00:59:28;0.50;;;0.50;;
15402;SDS011;7799;53.478;10.170;2022-10-04T01:02:01;0.40;;;0.40;;
15402;SDS011;7799;53.478;10.170;2022-10-04T01:04:34;0.40;;;0.40;;
15402;SDS011;7799;53.478;10.170;2022-10-04T01:07:03;0.53;;;0.50;;
15402;SDS011;7799;53.478;10.170;2022-10-04T01:09:33;0.40;;;0.40;;
15402;SDS011;7799;53.478;10.170;2022-10-04T01:12:09;0.60;;;0.60;;
15402;SDS011;7799;53.478;10.170;2022-10-04T01:14:42;0.53;;;0.50;;
15402;SDS011;7799;53.478;10.170;2022-10-04T01:17:15;0.50;;;0.50;;
15402;SDS011;7799;53.478;10.170;2022-10-04T01:19:48;0.40;;;0.40;;
15402;SDS011;7799;53.478;10.170;2022-10-04T01:22:28;0.40;;;0.40;;
15402;SDS011;7799;53.478;10.170;2022-10-04T01:24:58;0.47;;;0.47;;
15402;SDS011;7799;53.478;10.170;2022-10-04T01:27:31;0.40;;;0.40;;
15402;SDS011;7799;53.478;10.170;2022-10-04T01:30:00;0.50;;;0.50;;
15402;SDS011;7799;53.478;10.170;2022-10-04T01:32:29;0.53;;;0.50;;
15402;SDS011;7799;53.478;10.170;2022-10-04T01:34:56;0.50;;;0.50;;
15402;SDS011;7799;53.478;10.170;2022-10-04T01:37:24;0.97;;;0.60;;
15402;SDS011;7799;53.478;10.170;2022-10-04T01:39:52;0.53;;;0.53;;
15402;SDS011;7799;53.478;10.170;2022-10-04T01:42:19;0.40;;;0.40;;
15402;SDS011;7799;53.478;10.170;2022-10-04T01:44:49;0.40;;;0.40;;
15402;SDS011;7799;53.478;10.170;2022-10-04T01:47:22;0.40;;;0.40;;
15402;SDS011;7799;53.478;10.170;2022-10-04T01:49:56;0.40;;;0.40;;
15402;SDS011;7799;53.478;10.170;2022-10-04T01:52:29;0.40;;;0.40;;
15402;SDS011;7799;53.478;10.170;2022-10-04T01:55:00;0.50;;;0.50;;
15402;SDS011;7799;53.478;10.170;2022-10-04T01:57:30;0.60;;;0.50;;
15402;SDS011;7799;53.478;10.170;2022-10-04T02:00:00;0.50;;;0.50;;
15402;SDS011;7799;53.478;10.170;2022-10-04T02:02:29;0.50;;;0.47;;
15402;SDS011;7799;53.478;10.170;2022-10-04T02:04:59;0.40;;;0.40;;
15402;SDS011;7799;53.478;10.170;2022-10-04T02:07:30;0.50;;;0.50;;
15402;SDS011;7799;53.478;10.170;2022-10-04T02:10:02;0.50;;;0.50;;
15402;SDS011;7799;53.478;10.170;2022-10-04T02:12:30;0.50;;;0.50;;
15402;SDS011;7799;53.478;10.170;2022-10-04T02:14:59;0.50;;;0.50;;
15402;SDS011;7799;53.478;10.170;2022-10-04T02:17:28;0.40;;;0.40;;
15402;SDS011;7799;53.478;10.170;2022-10-04T02:19:59;0.43;;;0.43;;
15402;SDS011;7799;53.478;10.170;2022-10-04T02:22:28;0.50;;;0.50;;
15402;SDS011;7799;53.478;10.170;2022-10-04T02:24:56;0.60;;;0.60;;
15402;SDS011;7799;53.478;10.170;2022-10-04T02:27:26;1.00;;;0.50;;
15402;SDS011;7799;53.478;10.170;2022-10-04T02:29:58;0.50;;;0.50;;
15402;SDS011;7799;53.478;10.170;2022-10-04T02:32:28;0.60;;;0.60;;
15402;SDS011;7799;53.478;10.170;2022-10-04T02:35:13;0.57;;;0.57;;
15402;SDS011;7799;53.478;10.170;2022-10-04T02:37:41;0.50;;;0.50;;
15402;SDS011;7799;53.478;10.170;2022-10-04T02:40:09;0.53;;;0.50;;
15402;SDS011;7799;53.478;10.170;2022-10-04T02:42:39;0.60;;;0.60;;
15402;SDS011;7799;53.478;10.170;2022-10-04T02:45:12;0.60;;;0.60;;
15402;SDS011;7799;53.478;10.170;2022-10-04T02:47:43;0.47;;;0.47;;
15402;SDS011;7799;53.478;10.170;2022-10-04T02:50:17;0.50;;;0.50;;
15402;SDS011;7799;53.478;10.170;2022-10-04T02:52:49;0.77;;;0.70;;
15402;SDS011;7799;53.478;10.170;2022-10-04T02:55:18;0.50;;;0.50;;
15402;SDS011;7799;53.478;10.170;2022-10-04T02:57:45;0.80;;;0.80;;
15402;SDS011;7799;53.478;10.170;2022-10-04T03:00:17;0.50;;;0.50;;
15402;SDS011;7799;53.478;10.170;2022-10-04T03:03:12;0.60;;;0.60;;
15402;SDS011;7799;53.478;10.170;2022-10-04T03:05:41;0.60;;;0.60;;
15402;SDS011;7799;53.478;10.170;2022-10-04T03:08:10;0.60;;;0.60;;
15402;SDS011;7799;53.478;10.170;2022-10-04T03:10:37;0.70;;;0.70;;
15402;SDS011;7799;53.478;10.170;2022-10-04T03:13:04;0.50;;;0.50;;
15402;SDS011;7799;53.478;10.170;2022-10-04T03:15:30;0.50;;;0.50;;
15402;SDS011;7799;53.478;10.170;2022-10-04T03:17:57;0.50;;;0.50;;
15402;SDS011;7799;53.478;10.170;2022-10-04T03:20:25;0.50;;;0.50;;
15402;SDS011;7799;53.478;10.170;2022-10-04T03:22:52;0.50;;;0.50;;
15402;SDS011;7799;53.478;10.170;2022-10-04T03:25:27;0.53;;;0.53;;
15402;SDS011;7799;53.478;10.170;2022-10-04T03:27:55;0.50;;;0.50;;
15402;SDS011;7799;53.478;10.170;2022-10-04T03:30:25;0.70;;;0.70;;
15402;SDS011;7799;53.478;10.170;2022-10-04T03:32:52;0.73;;;0.50;;
15402;SDS011;7799;53.478;10.170;2022-10-04T03:35:21;0.60;;;0.60;;
15402;SDS011;7799;53.478;10.170;2022-10-04T03:37:52;0.50;;;0.50;;
15402;SDS011;7799;53.478;10.170;2022-10-04T03:40:20;0.50;;;0.50;;
15402;SDS011;7799;53.478;10.170;2022-10-04T03:42:52;0.50;;;0.50;;
15402;SDS011;7799;53.478;10.170;2022-10-04T03:45:20;0.50;;;0.50;;
15402;SDS011;7799;53.478;10.170;2022-10-04T03:47:50;0.53;;;0.53;;
15402;SDS011;7799;53.478;10.170;2022-10-04T03:50:18;0.60;;;0.50;;
15402;SDS011;7799;53.478;10.170;2022-10-04T03:52:49;0.70;;;0.50;;
15402;SDS011;7799;53.478;10.170;2022-10-04T03:55:18;0.50;;;0.50;;
15402;SDS011;7799;53.478;10.170;2022-10-04T03:57:46;0.50;;;0.50;;
15402;SDS011;7799;53.478;10.170;2022-10-04T04:00:15;0.60;;;0.60;;
15402;SDS011;7799;53.478;10.170;2022-10-04T04:02:43;0.60;;;0.60;;
15402;SDS011;7799;53.478;10.170;2022-10-04T04:05:14;0.60;;;0.60;;
15402;SDS011;7799;53.478;10.170;2022-10-04T04:07:44;0.63;;;0.63;;
15402;SDS011;7799;53.478;10.170;2022-10-04T04:10:15;0.77;;;0.77;;
15402;SDS011;7799;53.478;10.170;2022-10-04T04:12:45;0.60;;;0.60;;
15402;SDS011;7799;53.478;10.170;2022-10-04T04:15:14;0.40;;;0.40;;
15402;SDS011;7799;53.478;10.170;2022-10-04T04:17:41;0.57;;;0.57;;
15402;SDS011;7799;53.478;10.170;2022-10-04T04:20:13;0.60;;;0.60;;
15402;SDS011;7799;53.478;10.170;2022-10-04T04:22:43;0.53;;;0.53;;
15402;SDS011;7799;53.478;10.170;2022-10-04T04:25:11;0.60;;;0.60;;
15402;SDS011;7799;53.478;10.170;2022-10-04T04:27:40;1.20;;;0.60;;
15402;SDS011;7799;53.478;10.170;2022-10-04T04:30:07;0.50;;;0.50;;
15402;SDS011;7799;53.478;10.170;2022-10-04T04:32:39;0.60;;;0.60;;
15402;SDS011;7799;53.478;10.170;2022-10-04T04:35:19;0.63;;;0.63;;
15402;SDS011;7799;53.478;10.170;2022-10-04T04:38:00;0.60;;;0.60;;
15402;SDS011;7799;53.478;10.170;2022-10-04T04:40:28;0.50;;;0.50;;
15402;SDS011;7799;53.478;10.170;2022-10-04T04:42:56;0.70;;;0.70;;
15402;SDS011;7799;53.478;10.170;2022-10-04T04:45:24;0.60;;;0.60;;
15402;SDS011;7799;53.478;10.170;2022-10-04T04:47:55;0.57;;;0.57;;
15402;SDS011;7799;53.478;10.170;2022-10-04T04:50:22;0.60;;;0.60;;
15402;SDS011;7799;53.478;10.170;2022-10-04T04:52:56;0.60;;;0.60;;
15402;SDS011;7799;53.478;10.170;2022-10-04T04:55:26;0.73;;;0.73;;
15402;SDS011;7799;53.478;10.170;2022-10-04T04:57:55;1.90;;;0.60;;
15402;SDS011;7799;53.478;10.170;2022-10-04T05:00:23;0.80;;;0.80;;
15402;SDS011;7799;53.478;10.170;2022-10-04T05:02:56;0.67;;;0.67;;
15402;SDS011;7799;53.478;10.170;2022-10-04T05:05:24;1.20;;;0.80;;
15402;SDS011;7799;53.478;10.170;2022-10-04T05:08:12;0.87;;;0.87;;
15402;SDS011;7799;53.478;10.170;2022-10-04T05:10:42;0.77;;;0.77;;
15402;SDS011;7799;53.478;10.170;2022-10-04T05:13:11;0.97;;;0.97;;
15402;SDS011;7799;53.478;10.170;2022-10-04T05:15:38;1.00;;;1.00;;
15402;SDS011;7799;53.478;10.170;2022-10-04T05:18:17;1.00;;;1.00;;
15402;SDS011;7799;53.478;10.170;2022-10-04T05:20:52;0.97;;;0.90;;
15402;SDS011;7799;53.478;10.170;2022-10-04T05:23:21;0.90;;;0.90;;
15402;SDS011;7799;53.478;10.170;2022-10-04T05:25:48;0.93;;;0.93;;
15402;SDS011;7799;53.478;10.170;2022-10-04T05:28:15;0.87;;;0.87;;
15402;SDS011;7799;53.478;10.170;2022-10-04T05:30:45;1.00;;;1.00;;
15402;SDS011;7799;53.478;10.170;2022-10-04T05:33:19;0.77;;;0.77;;
15402;SDS011;7799;53.478;10.170;2022-10-04T05:35:53;0.93;;;0.93;;
15402;SDS011;7799;53.478;10.170;2022-10-04T05:38:26;0.70;;;0.70;;
15402;SDS011;7799;53.478;10.170;2022-10-04T05:40:59;0.90;;;0.90;;
15402;SDS011;7799;53.478;10.170;2022-10-04T05:43:29;0.70;;;0.70;;
15402;SDS011;7799;53.478;10.170;2022-10-04T05:46:09;0.90;;;0.90;;
15402;SDS011;7799;53.478;10.170;2022-10-04T05:48:40;0.90;;;0.90;;
15402;SDS011;7799;53.478;10.170;2022-10-04T05:51:11;1.00;;;1.00;;
15402;SDS011;7799;53.478;10.170;2022-10-04T05:53:39;0.80;;;0.80;;
15402;SDS011;7799;53.478;10.170;2022-10-04T05:56:11;0.97;;;0.97;;
15402;SDS011;7799;53.478;10.170;2022-10-04T05:58:50;0.90;;;0.90;;
15402;SDS011;7799;53.478;10.170;2022-10-04T06:01:26;1.13;;;1.03;;
15402;SDS011;7799;53.478;10.170;2022-10-04T06:07:03;1.00;;;0.90;;
15402;SDS011;7799;53.478;10.170;2022-10-04T06:09:43;1.00;;;1.00;;
15402;SDS011;7799;53.478;10.170;2022-10-04T06:12:16;0.90;;;0.90;;
15402;SDS011;7799;53.478;10.170;2022-10-04T06:14:55;0.90;;;0.90;;
15402;SDS011;7799;53.478;10.170;2022-10-04T06:17:41;0.80;;;0.80;;
15402;SDS011;7799;53.478;10.170;2022-10-04T06:20:26;1.23;;;0.77;;
15402;SDS011;7799;53.478;10.170;2022-10-04T06:23:11;1.00;;;0.90;;
15402;SDS011;7799;53.478;10.170;2022-10-04T06:25:41;0.90;;;0.80;;
15402;SDS011;7799;53.478;10.170;2022-10-04T06:28:12;0.93;;;0.93;;
15402;SDS011;7799;53.478;10.170;2022-10-04T06:30:43;0.80;;;0.80;;
15402;SDS011;7799;53.478;10.170;2022-10-04T06:33:21;0.73;;;0.73;;
15402;SDS011;7799;53.478;10.170;2022-10-04T06:35:57;0.90;;;0.90;;
15402;SDS011;7799;53.478;10.170;2022-10-04T06:38:44;0.97;;;0.90;;
15402;SDS011;7799;53.478;10.170;2022-10-04T06:41:39;1.00;;;1.00;;
15402;SDS011;7799;53.478;10.170;2022-10-04T06:47:04;0.80;;;0.80;;
15402;SDS011;7799;53.478;10.170;2022-10-04T06:49:40;0.80;;;0.80;;
15402;SDS011;7799;53.478;10.170;2022-10-04T06:52:22;0.93;;;0.93;;
15402;SDS011;7799;53.478;10.170;2022-10-04T06:54:56;1.20;;;1.20;;
15402;SDS011;7799;53.478;10.170;2022-10-04T07:00:33;1.03;;;0.93;;
15402;SDS011;7799;53.478;10.170;2022-10-04T07:03:03;1.70;;;1.60;;
15402;SDS011;7799;53.478;10.170;2022-10-04T07:05:34;2.30;;;2.10;;
15402;SDS011;7799;53.478;10.170;2022-10-04T07:08:09;2.20;;;2.00;;
15402;SDS011;7799;53.478;10.170;2022-10-04T07:10:39;3.63;;;3.33;;
15402;SDS011;7799;53.478;10.170;2022-10-04T07:13:13;3.77;;;3.40;;
15402;SDS011;7799;53.478;10.170;2022-10-04T07:15:46;3.20;;;3.00;;
15402;SDS011;7799;53.478;10.170;2022-10-04T07:18:25;3.20;;;3.00;;
15402;SDS011;7799;53.478;10.170;2022-10-04T07:20:57;2.93;;;2.73;;
15402;SDS011;7799;53.478;10.170;2022-10-04T07:23:31;2.20;;;2.10;;
15402;SDS011;7799;53.478;10.170;2022-10-04T07:26:02;3.17;;;2.63;;
15402;SDS011;7799;53.478;10.170;2022-10-04T07:28:30;1.70;;;1.60;;
15402;SDS011;7799;53.478;10.170;2022-10-04T07:31:19;3.17;;;1.80;;
15402;SDS011;7799;53.478;10.170;2022-10-04T07:33:51;2.10;;;1.80;;
15402;SDS011;7799;53.478;10.170;2022-10-04T07:36:21;1.47;;;1.37;;
15402;SDS011;7799;53.478;10.170;2022-10-04T07:38:52;1.70;;;1.60;;
15402;SDS011;7799;53.478;10.170;2022-10-04T07:41:25;1.90;;;1.80;;
15402;SDS011;7799;53.478;10.170;2022-10-04T07:43:54;1.50;;;1.40;;
15402;SDS011;7799;53.478;10.170;2022-10-04T07:46:25;1.67;;;1.57;;
15402;SDS011;7799;53.478;10.170;2022-10-04T07:49:02;1.50;;;1.40;;
15402;SDS011;7799;53.478;10.170;2022-10-04T07:51:31;2.53;;;1.90;;
15402;SDS011;7799;53.478;10.170;2022-10-04T07:54:01;1.60;;;1.50;;
15402;SDS011;7799;53.478;10.170;2022-10-04T07:56:31;1.87;;;1.77;;
15402;SDS011;7799;53.478;10.170;2022-10-04T07:59:04;1.77;;;1.50;;
15402;SDS011;7799;53.478;10.170;2022-10-04T08:01:41;1.90;;;1.80;;
15402;SDS011;7799;53.478;10.170;2022-10-04T08:04:13;1.70;;;1.60;;
15402;SDS011;7799;53.478;10.170;2022-10-04T08:06:51;2.10;;;1.70;;
15402;SDS011;7799;53.478;10.170;2022-10-04T08:09:30;1.60;;;1.50;;
15402;SDS011;7799;53.478;10.170;2022-10-04T08:12:05;2.00;;;1.90;;
15402;SDS011;7799;53.478;10.170;2022-10-04T08:14:38;2.03;;;1.93;;
15402;SDS011;7799;53.478;10.170;2022-10-04T08:17:19;1.87;;;1.77;;
15402;SDS011;7799;53.478;10.170;2022-10-04T08:19:57;2.03;;;1.93;;
15402;SDS011;7799;53.478;10.170;2022-10-04T08:22:33;2.20;;;2.00;;
15402;SDS011;7799;53.478;10.170;2022-10-04T08:25:16;2.80;;;2.50;;
15402;SDS011;7799;53.478;10.170;2022-10-04T08:27:49;2.30;;;2.10;;
15402;SDS011;7799;53.478;10.170;2022-10-04T08:30:39;3.00;;;2.80;;
15402;SDS011;7799;53.478;10.170;2022-10-04T08:33:17;3.10;;;2.80;;
15402;SDS011;7799;53.478;10.170;2022-10-04T08:35:54;3.07;;;2.77;;
15402;SDS011;7799;53.478;10.170;2022-10-04T08:38:33;3.03;;;2.83;;
15402;SDS011;7799;53.478;10.170;2022-10-04T08:44:18;2.30;;;2.20;;
15402;SDS011;7799;53.478;10.170;2022-10-04T08:47:31;3.17;;;2.90;;
15402;SDS011;7799;53.478;10.170;2022-10-04T08:50:15;3.10;;;2.90;;
15402;SDS011;7799;53.478;10.170;2022-10-04T08:52:59;2.90;;;2.70;;
15402;SDS011;7799;53.478;10.170;2022-10-04T08:55:40;3.47;;;3.17;;
15402;SDS011;7799;53.478;10.170;2022-10-04T08:58:14;4.80;;;4.30;;
15402;SDS011;7799;53.478;10.170;2022-10-04T09:00:49;3.93;;;3.63;;
15402;SDS011;7799;53.478;10.170;2022-10-04T09:06:22;4.13;;;3.40;;
15402;SDS011;7799;53.478;10.170;2022-10-04T09:12:11;2.63;;;2.43;;
15402;SDS011;7799;53.478;10.170;2022-10-04T09:15:09;2.37;;;2.23;;
15402;SDS011;7799;53.478;10.170;2022-10-04T09:17:42;3.50;;;2.93;;
15402;SDS011;7799;53.478;10.170;2022-10-04T09:20:18;3.17;;;2.93;;
15402;SDS011;7799;53.478;10.170;2022-10-04T09:22:47;2.43;;;2.20;;
15402;SDS011;7799;53.478;10.170;2022-10-04T09:25:25;2.93;;;2.70;;
15402;SDS011;7799;53.478;10.170;2022-10-04T09:31:20;3.30;;;3.00;;
15402;SDS011;7799;53.478;10.170;2022-10-04T09:34:05;3.20;;;2.90;;
15402;SDS011;7799;53.478;10.170;2022-10-04T09:36:45;3.27;;;3.00;;
15402;SDS011;7799;53.478;10.170;2022-10-04T09:39:24;2.90;;;2.70;;
15402;SDS011;7799;53.478;10.170;2022-10-04T09:42:08;2.63;;;2.53;;
15402;SDS011;7799;53.478;10.170;2022-10-04T09:44:46;2.63;;;2.13;;
15402;SDS011;7799;53.478;10.170;2022-10-04T09:47:32;3.17;;;2.87;;
15402;SDS011;7799;53.478;10.170;2022-10-04T09:53:07;3.10;;;2.70;;
15402;SDS011;7799;53.478;10.170;2022-10-04T09:55:49;3.37;;;3.07;;
15402;SDS011;7799;53.478;10.170;2022-10-04T09:58:28;2.30;;;2.10;;
15402;SDS011;7799;53.478;10.170;2022-10-04T10:01:11;3.60;;;2.27;;
15402;SDS011;7799;53.478;10.170;2022-10-04T10:03:48;2.40;;;2.30;;
15402;SDS011;7799;53.478;10.170;2022-10-04T10:06:44;3.50;;;2.80;;
15402;SDS011;7799;53.478;10.170;2022-10-04T10:09:18;2.73;;;2.40;;
15402;SDS011;7799;53.478;10.170;2022-10-04T10:12:18;2.03;;;1.93;;
15402;SDS011;7799;53.478;10.170;2022-10-04T10:15:11;3.40;;;2.57;;
15402;SDS011;7799;53.478;10.170;2022-10-04T10:17:44;2.60;;;2.40;;
15402;SDS011;7799;53.478;10.170;2022-10-04T10:20:25;3.40;;;2.50;;
15402;SDS011;7799;53.478;10.170;2022-10-04T10:29:15;3.00;;;2.40;;
15402;SDS011;7799;53.478;10.170;2022-10-04T10:31:57;2.47;;;2.37;;
15402;SDS011;7799;53.478;10.170;2022-10-04T10:34:35;2.27;;;2.17;;
15402;SDS011;7799;53.478;10.170;2022-10-04T10:37:09;1.90;;;1.80;;
15402;SDS011;7799;53.478;10.170;2022-10-04T10:39:47;2.00;;;1.80;;
15402;SDS011;7799;53.478;10.170;2022-10-04T10:45:45;2.70;;;2.50;;
15402;SDS011;7799;53.478;10.170;2022-10-04T10:48:21;6.17;;;3.83;;
15402;SDS011;7799;53.478;10.170;2022-10-04T10:51:02;4.87;;;4.00;;
15402;SDS011;7799;53.478;10.170;2022-10-04T10:56:59;5.80;;;4.97;;
15402;SDS011;7799;53.478;10.170;2022-10-04T10:59:37;4.30;;;4.00;;
15402;SDS011;7799;53.478;10.170;2022-10-04T11:05:26;3.53;;;3.17;;
15402;SDS011;7799;53.478;10.170;2022-10-04T11:08:07;3.57;;;3.27;;
15402;SDS011;7799;53.478;10.170;2022-10-04T11:10:55;3.50;;;2.63;;
15402;SDS011;7799;53.478;10.170;2022-10-04T11:13:42;2.53;;;2.43;;
15402;SDS011;7799;53.478;10.170;2022-10-04T11:16:50;4.15;;;3.42;;
15402;SDS011;7799;53.478;10.170;2022-10-04T11:19:33;3.60;;;3.30;;
15402;SDS011;7799;53.478;10.170;2022-10-04T11:22:21;3.33;;;3.03;;
15402;SDS011;7799;53.478;10.170;2022-10-04T11:25:14;3.67;;;2.90;;
15402;SDS011;7799;53.478;10.170;2022-10-04T11:27:52;3.40;;;3.17;;
15402;SDS011;7799;53.478;10.170;2022-10-04T11:30:28;3.37;;;2.97;;
15402;SDS011;7799;53.478;10.170;2022-10-04T11:36:11;4.57;;;3.07;;
15402;SDS011;7799;53.478;10.170;2022-10-04T11:38:56;4.37;;;3.00;;
15402;SDS011;7799;53.478;10.170;2022-10-04T11:41:31;3.37;;;2.63;;
15402;SDS011;7799;53.478;10.170;2022-10-04T11:44:20;3.00;;;2.60;;
15402;SDS011;7799;53.478;10.170;2022-10-04T11:46:55;3.03;;;1.95;;
15402;SDS011;7799;53.478;10.170;2022-10-04T11:49:33;2.53;;;2.33;;
15402;SDS011;7799;53.478;10.170;2022-10-04T11:52:35;3.70;;;1.98;;
15402;SDS011;7799;53.478;10.170;2022-10-04T11:55:16;2.97;;;2.17;;
15402;SDS011;7799;53.478;10.170;2022-10-04T11:57:51;2.42;;;1.70;;
15402;SDS011;7799;53.478;10.170;2022-10-04T12:00:22;2.88;;;1.88;;
15402;SDS011;7799;53.478;10.170;2022-10-04T12:03:00;3.08;;;1.52;;
15402;SDS011;7799;53.478;10.170;2022-10-04T12:05:45;1.77;;;1.35;;
15402;SDS011;7799;53.478;10.170;2022-10-04T12:11:36;1.60;;;1.30;;
15402;SDS011;7799;53.478;10.170;2022-10-04T12:14:41;2.30;;;1.80;;
15402;SDS011;7799;53.478;10.170;2022-10-04T12:17:38;2.42;;;1.33;;
15402;SDS011;7799;53.478;10.170;2022-10-04T12:20:42;1.20;;;1.10;;
15402;SDS011;7799;53.478;10.170;2022-10-04T12:23:30;1.60;;;1.30;;
15402;SDS011;7799;53.478;10.170;2022-10-04T12:26:18;1.10;;;1.00;;
15402;SDS011;7799;53.478;10.170;2022-10-04T12:31:52;1.10;;;0.97;;
15402;SDS011;7799;53.478;10.170;2022-10-04T12:34:25;1.23;;;1.10;;
15402;SDS011;7799;53.478;10.170;2022-10-04T12:36:59;1.08;;;1.08;;
15402;SDS011;7799;53.478;10.170;2022-10-04T12:39:41;1.70;;;1.40;;
15402;SDS011;7799;53.478;10.170;2022-10-04T12:42:20;1.40;;;1.10;;
15402;SDS011;7799;53.478;10.170;2022-10-04T12:44:57;2.28;;;1.35;;
15402;SDS011;7799;53.478;10.170;2022-10-04T12:47:42;2.30;;;1.25;;
15402;SDS011;7799;53.478;10.170;2022-10-04T12:50:19;1.48;;;1.20;;
15402;SDS011;7799;53.478;10.170;2022-10-04T12:52:52;2.35;;;1.35;;
15402;SDS011;7799;53.478;10.170;2022-10-04T12:55:25;1.48;;;0.93;;
15402;SDS011;7799;53.478;10.170;2022-10-04T12:58:06;2.13;;;1.30;;
15402;SDS011;7799;53.478;10.170;2022-10-04T13:00:42;2.05;;;1.40;;
15402;SDS011;7799;53.478;10.170;2022-10-04T13:03:16;1.40;;;1.30;;
15402;SDS011;7799;53.478;10.170;2022-10-04T13:05:52;1.55;;;1.13;;
15402;SDS011;7799;53.478;10.170;2022-10-04T13:08:36;1.65;;;1.10;;
15402;SDS011;7799;53.478;10.170;2022-10-04T13:11:18;2.05;;;1.20;;
15402;SDS011;7799;53.478;10.170;2022-10-04T13:13:53;2.15;;;1.70;;
15402;SDS011;7799;53.478;10.170;2022-10-04T13:16:31;1.70;;;1.38;;
15402;SDS011;7799;53.478;10.170;2022-10-04T13:19:03;1.42;;;1.25;;
15402;SDS011;7799;53.478;10.170;2022-10-04T13:21:58;2.47;;;1.52;;
15402;SDS011;7799;53.478;10.170;2022-10-04T13:24:44;2.22;;;1.10;;
15402;SDS011;7799;53.478;10.170;2022-10-04T13:27:30;2.67;;;1.45;;
15402;SDS011;7799;53.478;10.170;2022-10-04T13:30:05;1.10;;;1.00;;
15402;SDS011;7799;53.478;10.170;2022-10-04T13:32:40;1.42;;;1.00;;
15402;SDS011;7799;53.478;10.170;2022-10-04T13:35:12;1.20;;;1.10;;
15402;SDS011;7799;53.478;10.170;2022-10-04T13:37:43;0.90;;;0.90;;
15402;SDS011;7799;53.478;10.170;2022-10-04T13:40:27;0.88;;;0.85;;
15402;SDS011;7799;53.478;10.170;2022-10-04T13:43:04;0.93;;;0.93;;
15402;SDS011;7799;53.478;10.170;2022-10-04T13:45:48;1.63;;;1.20;;
15402;SDS011;7799;53.478;10.170;2022-10-04T13:48:28;1.25;;;1.10;;
15402;SDS011;7799;53.478;10.170;2022-10-04T13:51:07;1.83;;;0.98;;
15402;SDS011;7799;53.478;10.170;2022-10-04T13:53:43;1.50;;;1.40;;
15402;SDS011;7799;53.478;10.170;2022-10-04T13:56:41;1.45;;;1.13;;
15402;SDS011;7799;53.478;10.170;2022-10-04T13:59:26;2.47;;;1.33;;
15402;SDS011;7799;53.478;10.170;2022-10-04T14:05:16;2.77;;;1.80;;
15402;SDS011;7799;53.478;10.170;2022-10-04T14:07:57;3.27;;;2.03;;
15402;SDS011;7799;53.478;10.170;2022-10-04T14:10:51;2.17;;;1.37;;
15402;SDS011;7799;53.478;10.170;2022-10-04T14:16:44;1.73;;;1.40;;
15402;SDS011;7799;53.478;10.170;2022-10-04T14:19:33;1.30;;;1.20;;
15402;SDS011;7799;53.478;10.170;2022-10-04T14:22:10;3.13;;;1.70;;
15402;SDS011;7799;53.478;10.170;2022-10-04T14:24:57;2.00;;;1.40;;
15402;SDS011;7799;53.478;10.170;2022-10-04T14:27:48;1.40;;;1.30;;
15402;SDS011;7799;53.478;10.170;2022-10-04T14:30:41;1.83;;;1.50;;
15402;SDS011;7799;53.478;10.170;2022-10-04T14:33:24;1.80;;;1.70;;
15402;SDS011;7799;53.478;10.170;2022-10-04T14:36:06;1.93;;;1.50;;
15402;SDS011;7799;53.478;10.170;2022-10-04T14:38:45;2.93;;;1.70;;
15402;SDS011;7799;53.478;10.170;2022-10-04T14:41:26;1.20;;;1.10;;
15402;SDS011;7799;53.478;10.170;2022-10-04T14:44:13;1.50;;;1.37;;
15402;SDS011;7799;53.478;10.170;2022-10-04T14:46:58;1.63;;;1.50;;
15402;SDS011;7799;53.478;10.170;2022-10-04T14:49:41;2.17;;;1.47;;
15402;SDS011;7799;53.478;10.170;2022-10-04T14:52:18;2.53;;;1.50;;
15402;SDS011;7799;53.478;10.170;2022-10-04T14:54:50;2.00;;;1.73;;
15402;SDS011;7799;53.478;10.170;2022-10-04T14:57:20;1.80;;;1.60;;
15402;SDS011;7799;53.478;10.170;2022-10-04T15:00:00;1.73;;;1.30;;
15402;SDS011;7799;53.478;10.170;2022-10-04T15:02:39;1.23;;;1.10;;
15402;SDS011;7799;53.478;10.170;2022-10-04T15:05:28;1.17;;;1.17;;
15402;SDS011;7799;53.478;10.170;2022-10-04T15:08:11;1.97;;;1.50;;
15402;SDS011;7799;53.478;10.170;2022-10-04T15:10:48;2.43;;;1.60;;
15402;SDS011;7799;53.478;10.170;2022-10-04T15:13:18;1.40;;;1.30;;
15402;SDS011;7799;53.478;10.170;2022-10-04T15:15:56;1.20;;;1.10;;
15402;SDS011;7799;53.478;10.170;2022-10-04T15:18:33;1.97;;;1.23;;
15402;SDS011;7799;53.478;10.170;2022-10-04T15:21:08;1.47;;;1.37;;
15402;SDS011;7799;53.478;10.170;2022-10-04T15:23:43;1.30;;;1.20;;
15402;SDS011;7799;53.478;10.170;2022-10-04T15:29:08;1.33;;;1.23;;
15402;SDS011;7799;53.478;10.170;2022-10-04T15:31:51;1.40;;;1.30;;
15402;SDS011;7799;53.478;10.170;2022-10-04T15:34:25;1.47;;;1.37;;
15402;SDS011;7799;53.478;10.170;2022-10-04T15:42:26;1.73;;;1.40;;
15402;SDS011;7799;53.478;10.170;2022-10-04T15:48:05;1.20;;;1.20;;
15402;SDS011;7799;53.478;10.170;2022-10-04T15:50:52;1.20;;;1.20;;
15402;SDS011;7799;53.478;10.170;2022-10-04T15:56:19;1.00;;;1.00;;
15402;SDS011;7799;53.478;10.170;2022-10-04T15:58:51;1.73;;;1.60;;
15402;SDS011;7799;53.478;10.170;2022-10-04T16:01:26;1.60;;;1.50;;
15402;SDS011;7799;53.478;10.170;2022-10-04T16:04:14;1.43;;;1.33;;
15402;SDS011;7799;53.478;10.170;2022-10-04T16:06:46;1.23;;;1.13;;
15402;SDS011;7799;53.478;10.170;2022-10-04T16:09:20;1.00;;;1.00;;
15402;SDS011;7799;53.478;10.170;2022-10-04T16:11:55;1.10;;;1.00;;
15402;SDS011;7799;53.478;10.170;2022-10-04T16:14:29;1.00;;;1.00;;
15402;SDS011;7799;53.478;10.170;2022-10-04T16:17:06;1.77;;;1.40;;
15402;SDS011;7799;53.478;10.170;2022-10-04T16:19:55;1.20;;;1.20;;
15402;SDS011;7799;53.478;10.170;2022-10-04T16:22:30;1.90;;;1.30;;
15402;SDS011;7799;53.478;10.170;2022-10-04T16:24:58;1.00;;;1.00;;
15402;SDS011;7799;53.478;10.170;2022-10-04T16:27:37;0.93;;;0.93;;
15402;SDS011;7799;53.478;10.170;2022-10-04T16:30:28;0.93;;;0.93;;
15402;SDS011;7799;53.478;10.170;2022-10-04T16:33:01;0.90;;;0.90;;
15402;SDS011;7799;53.478;10.170;2022-10-04T16:35:38;0.60;;;0.60;;
15402;SDS011;7799;53.478;10.170;2022-10-04T16:38:14;0.80;;;0.80;;
15402;SDS011;7799;53.478;10.170;2022-10-04T16:40:55;0.90;;;0.90;;
15402;SDS011;7799;53.478;10.170;2022-10-04T16:43:28;0.83;;;0.83;;
15402;SDS011;7799;53.478;10.170;2022-10-04T16:46:04;0.87;;;0.87;;
15402;SDS011;7799;53.478;10.170;2022-10-04T16:48:36;0.77;;;0.77;;
15402;SDS011;7799;53.478;10.170;2022-10-04T16:51:25;0.80;;;0.80;;